Time;durP1;ratioP1;P1;durP2;ratioP2;P2;SDS_P1;SDS_P2;PMS_P1;PMS_P2;Temp;Humidity;BMP_temperature;BMP_pressure;BME280_temperature;BME280_humidity;BME280_pressure;Samples;Min_cycle;Max_cycle;Signal;HPM_P1;HPM_P2
2023/03/08 00:00:15;;;;;;;0.40;0.40;;;1.70;99.90;;;;;;4404604;32;20132;-73
2023/03/08 00:02:40;;;;;;;2.17;1.02;;;1.70;99.90;;;;;;4403273;32;20446;-74
2023/03/08 00:05:06;;;;;;;0.40;0.40;;;1.70;99.90;;;;;;4407730;32;20070;-74
2023/03/08 00:07:32;;;;;;;0.50;0.50;;;1.70;99.90;;;;;;4404096;32;20085;-73
2023/03/08 00:09:58;;;;;;;0.55;0.55;;;1.70;99.90;;;;;;4405154;32;20541;-73
2023/03/08 00:12:23;;;;;;;0.62;0.60;;;1.60;99.90;;;;;;4405796;32;20191;-73
2023/03/08 00:14:50;;;;;;;0.30;0.30;;;1.70;99.90;;;;;;4405837;32;20148;-73
2023/03/08 00:17:17;;;;;;;0.75;0.75;;;1.70;99.90;;;;;;4405148;32;20086;-73
2023/03/08 00:19:43;;;;;;;0.40;0.40;;;1.60;99.90;;;;;;4407831;32;20077;-73
2023/03/08 00:22:09;;;;;;;0.40;0.40;;;1.60;99.90;;;;;;4404378;32;20074;-75
2023/03/08 00:24:34;;;;;;;0.40;0.40;;;1.50;99.90;;;;;;4405911;32;20073;-74
2023/03/08 00:27:00;;;;;;;0.70;0.70;;;1.50;99.90;;;;;;4404730;32;20085;-73
2023/03/08 00:29:25;;;;;;;0.40;0.40;;;1.40;99.90;;;;;;4404663;32;20082;-74
2023/03/08 00:31:52;;;;;;;0.40;0.40;;;1.40;99.90;;;;;;4407219;32;20159;-74
2023/03/08 00:34:17;;;;;;;0.55;0.55;;;1.40;99.90;;;;;;4404458;32;20133;-74
2023/03/08 00:36:43;;;;;;;3.20;2.58;;;1.40;99.90;;;;;;4403598;32;21727;-73
2023/03/08 00:39:10;;;;;;;0.30;0.30;;;1.40;99.90;;;;;;4404489;32;20262;-74
2023/03/08 00:41:36;;;;;;;0.68;0.68;;;1.30;99.90;;;;;;4404472;32;20094;-73
2023/03/08 00:44:02;;;;;;;0.40;0.40;;;1.30;99.90;;;;;;4403938;32;20579;-73
2023/03/08 00:46:27;;;;;;;3.00;1.37;;;1.20;99.90;;;;;;4403238;32;20463;-73
2023/03/08 00:48:52;;;;;;;0.50;0.50;;;1.20;99.90;;;;;;4402578;32;20141;-72
2023/03/08 00:51:19;;;;;;;0.70;0.70;;;1.20;99.90;;;;;;4405197;32;20552;-74
2023/03/08 00:53:45;;;;;;;0.40;0.40;;;1.20;99.90;;;;;;4403632;32;20082;-75
2023/03/08 00:56:11;;;;;;;7.97;2.05;;;1.20;99.90;;;;;;4391806;32;20081;-74
2023/03/08 00:58:38;;;;;;;0.40;0.40;;;1.20;99.90;;;;;;4403900;32;20468;-74
2023/03/08 01:01:05;;;;;;;0.70;0.70;;;1.20;99.90;;;;;;4404111;32;20123;-74
2023/03/08 01:03:30;;;;;;;0.43;0.43;;;1.20;99.90;;;;;;4406913;32;20153;-74
2023/03/08 01:05:57;;;;;;;0.40;0.40;;;1.20;99.90;;;;;;4407393;32;20168;-74
2023/03/08 01:08:25;;;;;;;0.40;0.40;;;1.20;99.90;;;;;;4407394;32;20580;-75
2023/03/08 01:10:56;;;;;;;0.40;0.40;;;1.10;99.90;;;;;;4407319;32;20073;-74
2023/03/08 01:13:23;;;;;;;0.37;0.37;;;1.10;99.90;;;;;;4405551;32;20106;-74
2023/03/08 01:15:49;;;;;;;3.08;0.82;;;1.10;99.90;;;;;;4407645;32;20093;-74
2023/03/08 01:18:15;;;;;;;0.47;0.47;;;1.20;99.90;;;;;;4406114;32;20612;-74
2023/03/08 01:20:40;;;;;;;1.00;1.00;;;1.10;99.90;;;;;;4406125;32;20433;-74
2023/03/08 01:23:06;;;;;;;0.40;0.40;;;1.10;99.90;;;;;;4407781;32;20424;-74
2023/03/08 01:25:32;;;;;;;0.55;0.55;;;1.10;99.90;;;;;;4407847;32;20272;-74
2023/03/08 01:27:57;;;;;;;3.12;2.05;;;1.00;99.90;;;;;;4407704;32;20516;-74
2023/03/08 01:30:23;;;;;;;3.10;1.73;;;1.00;99.90;;;;;;4407364;32;20109;-74
2023/03/08 01:32:48;;;;;;;0.43;0.43;;;1.10;99.90;;;;;;4407755;32;20073;-75
2023/03/08 01:35:14;;;;;;;0.40;0.40;;;1.00;99.90;;;;;;4405640;32;20573;-74
2023/03/08 01:37:40;;;;;;;0.40;0.40;;;0.90;99.90;;;;;;4404228;32;20066;-74
2023/03/08 01:40:06;;;;;;;0.43;0.43;;;0.90;99.90;;;;;;4408021;32;20463;-74
2023/03/08 01:42:32;;;;;;;0.57;0.57;;;0.90;99.90;;;;;;4407394;32;20089;-74
2023/03/08 01:45:01;;;;;;;0.40;0.40;;;0.90;99.90;;;;;;4407819;32;20395;-75
2023/03/08 01:47:30;;;;;;;0.50;0.50;;;0.90;99.90;;;;;;4404997;32;20812;-74
2023/03/08 01:50:03;;;;;;;0.40;0.40;;;0.90;99.90;;;;;;4406466;32;20435;-74
2023/03/08 01:52:32;;;;;;;0.50;0.50;;;0.90;99.90;;;;;;4407317;32;20089;-74
2023/03/08 01:55:02;;;;;;;42.55;1.25;;;0.90;99.90;;;;;;4406528;32;20096;-74
2023/03/08 01:57:33;;;;;;;0.50;0.50;;;0.90;99.90;;;;;;4411156;32;20073;-73
2023/03/08 02:00:05;;;;;;;4.57;3.05;;;0.90;99.90;;;;;;4405245;32;20101;-74
2023/03/08 02:02:51;;;;;;;0.50;0.50;;;0.90;99.90;;;;;;4403831;32;20136;-74
2023/03/08 02:05:18;;;;;;;0.68;0.68;;;0.90;99.90;;;;;;4393507;32;20112;-74
2023/03/08 02:07:44;;;;;;;0.60;0.60;;;0.80;99.90;;;;;;4407672;32;20097;-74
2023/03/08 02:10:11;;;;;;;0.43;0.43;;;0.90;99.90;;;;;;4405766;32;20070;-74
2023/03/08 02:12:37;;;;;;;0.80;0.80;;;0.90;99.90;;;;;;4405053;32;20099;-75
2023/03/08 02:15:04;;;;;;;0.60;0.60;;;0.90;99.90;;;;;;4404934;32;20098;-74
2023/03/08 02:17:30;;;;;;;0.40;0.40;;;0.90;99.90;;;;;;4406165;32;20489;-74
2023/03/08 02:20:09;;;;;;;0.45;0.45;;;0.90;99.90;;;;;;4406452;32;20089;-74
2023/03/08 02:22:52;;;;;;;0.45;0.45;;;0.80;99.90;;;;;;4405487;32;20062;-74
2023/03/08 02:25:22;;;;;;;0.30;0.30;;;0.80;99.90;;;;;;4407685;32;20089;-74
2023/03/08 02:27:50;;;;;;;0.65;0.65;;;0.80;99.90;;;;;;4405446;32;20102;-75
2023/03/08 02:30:23;;;;;;;0.40;0.40;;;0.80;99.90;;;;;;4406159;32;20085;-75
2023/03/08 02:32:48;;;;;;;6.93;1.75;;;0.80;99.90;;;;;;4403756;32;20084;-74
2023/03/08 02:35:13;;;;;;;0.40;0.40;;;0.70;99.90;;;;;;4403553;32;20093;-74
2023/03/08 02:37:40;;;;;;;4.45;1.50;;;0.70;99.90;;;;;;4406739;32;20099;-74
2023/03/08 02:40:07;;;;;;;0.40;0.40;;;0.70;99.90;;;;;;4405316;32;20568;-73
2023/03/08 02:42:32;;;;;;;0.40;0.40;;;0.70;99.90;;;;;;4405314;32;20533;-75
2023/03/08 02:44:57;;;;;;;0.35;0.35;;;0.70;99.90;;;;;;4406190;32;20089;-75
2023/03/08 02:47:24;;;;;;;0.55;0.55;;;0.60;99.90;;;;;;4406154;32;20152;-74
2023/03/08 02:49:50;;;;;;;0.47;0.47;;;0.70;99.90;;;;;;4407835;32;20078;-74
2023/03/08 02:52:15;;;;;;;0.50;0.50;;;0.70;99.90;;;;;;4405009;32;20089;-74
2023/03/08 02:54:40;;;;;;;0.40;0.40;;;0.70;99.90;;;;;;4405173;32;20075;-74
2023/03/08 02:57:06;;;;;;;0.40;0.40;;;0.70;99.90;;;;;;4406111;32;20390;-75
2023/03/08 02:59:31;;;;;;;0.40;0.40;;;0.70;99.90;;;;;;4405978;32;20106;-74
2023/03/08 03:01:57;;;;;;;0.60;0.60;;;0.70;99.90;;;;;;4404266;32;20100;-74
2023/03/08 03:04:23;;;;;;;0.50;0.50;;;0.60;99.90;;;;;;4405755;32;20108;-74
2023/03/08 03:06:48;;;;;;;0.50;0.50;;;0.60;99.90;;;;;;4405247;32;20214;-74
2023/03/08 03:09:14;;;;;;;0.68;0.68;;;0.60;99.90;;;;;;4406544;32;20105;-74
2023/03/08 03:11:40;;;;;;;0.43;0.43;;;0.60;99.90;;;;;;4406079;32;20073;-75
2023/03/08 03:14:06;;;;;;;0.40;0.40;;;0.60;99.90;;;;;;4404588;32;20082;-74
2023/03/08 03:16:32;;;;;;;0.40;0.40;;;0.60;99.90;;;;;;4408133;32;20077;-74
2023/03/08 03:18:57;;;;;;;0.50;0.50;;;0.60;99.90;;;;;;4403986;32;20534;-74
2023/03/08 03:21:23;;;;;;;0.50;0.50;;;0.60;99.90;;;;;;4402363;32;20109;-74
2023/03/08 03:23:49;;;;;;;0.40;0.40;;;0.60;99.90;;;;;;4402959;32;20058;-74
2023/03/08 03:26:18;;;;;;;0.40;0.40;;;0.60;99.90;;;;;;4406359;32;20082;-74
2023/03/08 03:28:44;;;;;;;0.50;0.50;;;0.60;99.90;;;;;;4404135;32;20074;-74
2023/03/08 03:31:13;;;;;;;0.40;0.40;;;0.60;99.90;;;;;;4401812;32;20065;-74
2023/03/08 03:33:39;;;;;;;6.05;1.83;;;0.60;99.90;;;;;;4405812;32;20550;-74
2023/03/08 03:36:08;;;;;;;0.40;0.40;;;0.60;99.90;;;;;;4405240;32;20073;-74
2023/03/08 03:38:34;;;;;;;0.45;0.45;;;0.50;99.90;;;;;;4404979;32;20065;-74
2023/03/08 03:41:02;;;;;;;0.50;0.50;;;0.50;99.90;;;;;;4405758;32;20176;-74
2023/03/08 03:43:28;;;;;;;0.40;0.40;;;0.50;99.90;;;;;;4400707;32;21297;-74
2023/03/08 03:45:56;;;;;;;0.65;0.65;;;0.60;99.90;;;;;;4405634;32;20545;-74
2023/03/08 03:48:21;;;;;;;1.02;1.02;;;0.50;99.90;;;;;;4407191;32;20082;-74
2023/03/08 03:50:54;;;;;;;0.43;0.43;;;0.50;99.90;;;;;;4404522;32;20489;-74
2023/03/08 03:53:19;;;;;;;0.60;0.60;;;0.50;99.90;;;;;;4404931;32;20061;-74
2023/03/08 03:55:45;;;;;;;3.30;1.25;;;0.60;99.90;;;;;;4406001;32;20167;-74
2023/03/08 03:58:11;;;;;;;0.40;0.40;;;0.60;99.90;;;;;;4405577;32;20548;-74
2023/03/08 04:00:36;;;;;;;0.40;0.40;;;0.50;99.90;;;;;;4405497;32;20101;-74
2023/03/08 04:03:02;;;;;;;1.95;1.25;;;0.60;99.90;;;;;;4405037;32;20090;-74
2023/03/08 04:05:27;;;;;;;0.40;0.40;;;0.60;99.90;;;;;;4404503;32;20429;-74
2023/03/08 04:07:54;;;;;;;0.40;0.40;;;0.60;99.90;;;;;;4405681;32;20100;-74
2023/03/08 04:10:19;;;;;;;0.40;0.40;;;0.60;99.90;;;;;;4405176;32;20477;-74
2023/03/08 04:12:48;;;;;;;0.40;0.40;;;0.50;99.90;;;;;;4402952;32;20102;-74
2023/03/08 04:15:14;;;;;;;0.85;0.82;;;0.50;99.90;;;;;;4406106;32;20158;-74
2023/03/08 04:17:40;;;;;;;0.40;0.40;;;0.50;99.90;;;;;;4404802;32;20089;-74
2023/03/08 04:20:06;;;;;;;0.40;0.40;;;0.50;99.90;;;;;;4405585;32;20136;-74
2023/03/08 04:22:32;;;;;;;0.37;0.37;;;0.50;99.90;;;;;;4403931;32;20089;-74
2023/03/08 04:24:57;;;;;;;0.40;0.40;;;0.50;99.90;;;;;;4404898;32;20864;-74
2023/03/08 04:27:23;;;;;;;0.55;0.55;;;0.50;99.90;;;;;;4404361;32;20086;-74
2023/03/08 04:29:48;;;;;;;0.85;0.85;;;0.50;99.90;;;;;;4405192;32;20093;-74
2023/03/08 04:32:14;;;;;;;0.50;0.50;;;0.60;99.90;;;;;;4405033;32;20070;-74
2023/03/08 04:34:41;;;;;;;0.52;0.52;;;0.60;99.90;;;;;;4407752;32;20085;-74
2023/03/08 04:37:09;;;;;;;0.60;0.60;;;0.60;99.90;;;;;;4408401;32;20069;-74
2023/03/08 04:39:35;;;;;;;0.40;0.40;;;0.60;99.90;;;;;;4407913;32;20246;-73
2023/03/08 04:42:00;;;;;;;0.80;0.80;;;0.60;99.90;;;;;;4406204;32;20089;-74
2023/03/08 04:44:26;;;;;;;0.50;0.50;;;0.50;99.90;;;;;;4407405;32;20093;-74
2023/03/08 04:46:51;;;;;;;0.52;0.52;;;0.60;99.90;;;;;;4407310;32;20444;-74
2023/03/08 04:49:17;;;;;;;0.45;0.45;;;0.50;99.90;;;;;;4405576;32;20484;-74
2023/03/08 04:51:42;;;;;;;0.60;0.60;;;0.50;99.90;;;;;;4407690;32;20085;-74
2023/03/08 04:54:08;;;;;;;0.40;0.40;;;0.40;99.90;;;;;;4404625;32;20122;-74
2023/03/08 04:56:33;;;;;;;0.50;0.50;;;0.40;99.90;;;;;;4408841;32;20057;-74
2023/03/08 04:58:59;;;;;;;0.50;0.50;;;0.40;99.90;;;;;;4408133;32;20081;-74
2023/03/08 05:01:24;;;;;;;0.50;0.50;;;0.40;99.90;;;;;;4408739;32;20070;-74
2023/03/08 05:03:51;;;;;;;0.37;0.37;;;0.40;99.90;;;;;;4406564;32;20082;-74
2023/03/08 05:06:17;;;;;;;0.40;0.40;;;0.30;99.90;;;;;;4405845;32;20118;-73
2023/03/08 05:08:43;;;;;;;0.40;0.40;;;0.10;99.90;;;;;;4408141;32;20136;-74
2023/03/08 05:11:10;;;;;;;0.40;0.40;;;0.20;99.90;;;;;;4408994;32;20070;-75
2023/03/08 05:13:37;;;;;;;0.57;0.57;;;0.20;99.90;;;;;;4404584;32;20086;-75
2023/03/08 05:16:05;;;;;;;0.40;0.40;;;0.20;99.90;;;;;;4410341;32;20062;-73
2023/03/08 05:18:30;;;;;;;0.40;0.40;;;0.10;99.90;;;;;;4407928;32;20100;-74
2023/03/08 05:20:58;;;;;;;0.40;0.40;;;0.20;99.90;;;;;;4410676;32;20172;-73
2023/03/08 05:23:26;;;;;;;0.80;0.65;;;0.30;99.90;;;;;;4406626;32;20094;-73
2023/03/08 05:25:54;;;;;;;0.40;0.40;;;0.30;99.90;;;;;;4408361;32;20086;-74
2023/03/08 05:28:21;;;;;;;1.33;1.23;;;0.40;99.90;;;;;;4408978;32;20081;-73
2023/03/08 05:30:46;;;;;;;0.47;0.47;;;0.50;99.90;;;;;;4406579;32;20081;-74
2023/03/08 05:33:12;;;;;;;0.40;0.40;;;0.60;99.90;;;;;;4408145;32;20114;-75
2023/03/08 05:35:37;;;;;;;0.73;0.73;;;0.60;99.90;;;;;;4408155;32;20530;-75
2023/03/08 05:38:03;;;;;;;0.40;0.40;;;0.60;99.90;;;;;;4400368;32;20513;-75
2023/03/08 05:40:28;;;;;;;0.68;0.68;;;0.50;99.90;;;;;;4407287;32;20145;-73
2023/03/08 05:42:54;;;;;;;0.52;0.52;;;0.60;99.90;;;;;;4405140;32;20543;-75
2023/03/08 05:45:19;;;;;;;1.60;0.62;;;0.60;99.90;;;;;;4407025;32;20079;-74
2023/03/08 05:47:45;;;;;;;0.50;0.50;;;0.50;99.90;;;;;;4406226;32;20458;-75
2023/03/08 05:50:11;;;;;;;0.40;0.40;;;0.50;99.90;;;;;;4404835;32;20078;-74
2023/03/08 05:52:37;;;;;;;5.47;1.52;;;0.40;99.90;;;;;;4404978;32;20094;-74
2023/03/08 05:55:04;;;;;;;0.50;0.50;;;0.40;99.90;;;;;;4407670;32;20564;-74
2023/03/08 05:57:29;;;;;;;0.95;0.93;;;0.40;99.90;;;;;;4408223;32;20093;-74
2023/03/08 05:59:55;;;;;;;0.50;0.50;;;0.40;99.90;;;;;;4406794;32;20202;-75
2023/03/08 06:02:20;;;;;;;0.50;0.50;;;0.50;99.90;;;;;;4404838;32;20561;-74
2023/03/08 06:04:45;;;;;;;2.45;1.02;;;0.50;99.90;;;;;;4405918;32;20676;-74
2023/03/08 06:07:11;;;;;;;1.30;1.05;;;0.50;99.90;;;;;;4408248;32;20087;-74
2023/03/08 06:09:36;;;;;;;0.73;0.73;;;0.40;99.90;;;;;;4406240;32;20074;-74
2023/03/08 06:12:02;;;;;;;0.60;0.60;;;0.20;99.90;;;;;;4404878;32;20106;-75
2023/03/08 06:14:28;;;;;;;0.40;0.40;;;0.30;99.90;;;;;;4403747;32;20446;-74
2023/03/08 06:16:53;;;;;;;0.55;0.55;;;0.40;99.90;;;;;;4405440;32;20102;-74
2023/03/08 06:19:20;;;;;;;0.40;0.40;;;0.30;99.90;;;;;;4405307;32;20478;-74
2023/03/08 06:21:45;;;;;;;0.50;0.50;;;0.30;99.90;;;;;;4407952;32;20078;-74
2023/03/08 06:24:11;;;;;;;0.70;0.70;;;0.30;99.90;;;;;;4405141;32;20497;-74
2023/03/08 06:26:36;;;;;;;2.55;1.73;;;0.40;99.90;;;;;;4400994;32;20069;-75
2023/03/08 06:29:02;;;;;;;0.50;0.50;;;0.50;99.90;;;;;;4403215;32;21154;-74
2023/03/08 06:31:28;;;;;;;0.57;0.57;;;0.50;99.90;;;;;;4405882;32;20097;-74
2023/03/08 06:33:53;;;;;;;0.80;0.80;;;0.50;99.90;;;;;;4405445;32;20529;-74
2023/03/08 06:36:20;;;;;;;0.50;0.50;;;0.60;99.90;;;;;;4406710;32;20069;-74
2023/03/08 06:38:47;;;;;;;1.33;1.23;;;0.60;99.90;;;;;;4404041;32;20446;-75
2023/03/08 06:41:14;;;;;;;1.02;0.95;;;0.60;99.90;;;;;;4405939;32;20086;-73
2023/03/08 06:43:40;;;;;;;2.83;1.30;;;0.70;99.90;;;;;;4405107;32;20282;-75
2023/03/08 06:46:09;;;;;;;0.35;0.35;;;0.80;99.90;;;;;;4406180;32;20093;-75
2023/03/08 06:48:35;;;;;;;0.50;0.50;;;0.80;99.90;;;;;;4404805;32;20627;-75
2023/03/08 06:51:00;;;;;;;0.40;0.40;;;0.70;99.90;;;;;;4407089;32;20065;-74
2023/03/08 06:53:26;;;;;;;0.40;0.40;;;0.60;99.90;;;;;;4403974;32;20066;-74
2023/03/08 06:55:52;;;;;;;0.40;0.40;;;0.70;99.90;;;;;;4398465;32;20105;-75
2023/03/08 06:58:18;;;;;;;0.37;0.37;;;0.70;99.90;;;;;;4407168;32;20070;-73
2023/03/08 07:00:43;;;;;;;0.40;0.40;;;0.70;99.90;;;;;;4404236;32;20082;-75
2023/03/08 07:03:12;;;;;;;0.40;0.40;;;0.80;99.90;;;;;;4406017;32;20830;-74
2023/03/08 07:05:37;;;;;;;0.40;0.40;;;0.90;99.90;;;;;;4403989;32;20073;-74
2023/03/08 07:08:03;;;;;;;0.65;0.65;;;0.80;99.90;;;;;;4405379;32;20111;-74
2023/03/08 07:10:30;;;;;;;1.60;1.20;;;0.80;99.90;;;;;;4405123;32;20125;-72
2023/03/08 07:12:55;;;;;;;0.55;0.55;;;0.80;99.90;;;;;;4404151;32;20090;-73
2023/03/08 07:15:22;;;;;;;0.40;0.40;;;0.90;99.90;;;;;;4404114;32;20093;-74
2023/03/08 07:17:50;;;;;;;0.60;0.60;;;0.90;99.90;;;;;;4406321;32;20077;-74
2023/03/08 07:20:18;;;;;;;0.60;0.60;;;1.10;99.90;;;;;;4405375;32;20102;-73
2023/03/08 07:22:44;;;;;;;0.40;0.40;;;1.20;99.90;;;;;;4403442;32;20081;-74
2023/03/08 07:25:11;;;;;;;8.88;2.25;;;1.20;99.90;;;;;;4407171;32;20090;-73
2023/03/08 07:27:37;;;;;;;0.50;0.50;;;1.30;99.90;;;;;;4406146;32;20526;-73
2023/03/08 07:30:03;;;;;;;0.50;0.50;;;1.30;99.90;;;;;;4405068;32;20065;-74
2023/03/08 07:32:28;;;;;;;0.40;0.40;;;1.40;99.90;;;;;;4403913;32;20062;-73
2023/03/08 07:34:56;;;;;;;0.40;0.40;;;1.20;99.90;;;;;;4398807;32;20106;-74
2023/03/08 07:37:22;;;;;;;0.40;0.40;;;1.40;99.90;;;;;;4399716;32;20186;-73
2023/03/08 07:39:47;;;;;;;0.40;0.40;;;1.30;99.90;;;;;;4404930;32;20089;-73
2023/03/08 07:42:13;;;;;;;6.97;2.50;;;1.40;99.90;;;;;;4405528;32;20825;-74
2023/03/08 07:44:38;;;;;;;0.80;0.80;;;1.60;99.90;;;;;;4405547;32;20065;-74
2023/03/08 07:47:06;;;;;;;0.50;0.50;;;1.70;99.90;;;;;;4407252;32;20529;-73
2023/03/08 07:49:32;;;;;;;0.90;0.85;;;1.90;99.90;;;;;;4405098;32;20081;-74
2023/03/08 07:51:57;;;;;;;0.45;0.45;;;1.90;99.90;;;;;;4398765;32;20500;-73
2023/03/08 07:54:23;;;;;;;0.47;0.47;;;1.80;99.90;;;;;;4401806;32;20070;-73
2023/03/08 07:56:51;;;;;;;0.37;0.37;;;1.80;99.90;;;;;;4391275;32;20105;-73
2023/03/08 07:59:16;;;;;;;1.17;0.73;;;1.90;99.90;;;;;;4403761;32;20094;-74
2023/03/08 08:01:42;;;;;;;0.40;0.40;;;1.90;99.90;;;;;;4404430;32;20097;-73
2023/03/08 08:04:08;;;;;;;0.95;0.88;;;1.90;99.90;;;;;;4404161;32;20093;-74
2023/03/08 08:06:35;;;;;;;0.35;0.35;;;2.00;99.90;;;;;;4404847;32;20082;-74
2023/03/08 08:09:01;;;;;;;0.40;0.40;;;2.10;99.90;;;;;;4403231;32;20523;-74
2023/03/08 08:11:27;;;;;;;0.40;0.40;;;2.10;99.90;;;;;;4405142;32;20097;-74
2023/03/08 08:13:53;;;;;;;0.73;0.73;;;2.00;99.90;;;;;;4404201;32;20069;-74
2023/03/08 08:16:19;;;;;;;0.57;0.57;;;2.10;99.90;;;;;;4403233;32;20066;-75
2023/03/08 08:18:45;;;;;;;0.40;0.40;;;2.30;99.90;;;;;;4404477;32;20102;-74
2023/03/08 08:21:13;;;;;;;0.50;0.50;;;2.30;99.90;;;;;;4406328;32;20141;-75
2023/03/08 08:23:41;;;;;;;4.00;1.80;;;2.40;99.90;;;;;;4402357;32;20431;-73
2023/03/08 08:26:09;;;;;;;0.50;0.50;;;2.60;99.90;;;;;;4403929;32;20137;-74
2023/03/08 08:28:37;;;;;;;0.73;0.73;;;2.50;99.90;;;;;;4404072;32;20085;-74
2023/03/08 08:31:06;;;;;;;1.33;0.68;;;2.60;99.90;;;;;;4404118;32;20086;-73
2023/03/08 08:33:33;;;;;;;0.57;0.57;;;2.60;99.90;;;;;;4401337;32;20085;-73
2023/03/08 08:36:02;;;;;;;0.43;0.43;;;2.80;99.90;;;;;;4401211;32;21190;-73
2023/03/08 08:38:28;;;;;;;0.43;0.43;;;2.80;99.90;;;;;;4403078;32;21303;-73
2023/03/08 08:40:53;;;;;;;0.40;0.40;;;2.80;99.90;;;;;;4403147;32;20203;-74
2023/03/08 08:43:19;;;;;;;0.50;0.50;;;2.80;99.90;;;;;;4394034;32;20101;-75
2023/03/08 08:45:46;;;;;;;0.40;0.40;;;2.90;99.90;;;;;;4397722;32;20090;-75
2023/03/08 08:48:12;;;;;;;0.60;0.60;;;2.90;99.90;;;;;;4401608;32;20338;-75
2023/03/08 08:50:39;;;;;;;0.47;0.47;;;3.00;99.90;;;;;;4402962;32;20073;-75
2023/03/08 08:53:05;;;;;;;0.40;0.40;;;2.70;99.90;;;;;;4403107;32;20077;-74
2023/03/08 08:55:31;;;;;;;0.40;0.40;;;2.90;99.90;;;;;;4403644;32;20094;-74
2023/03/08 08:57:56;;;;;;;0.88;0.85;;;2.90;99.90;;;;;;4404159;32;20142;-74
2023/03/08 09:00:22;;;;;;;0.47;0.47;;;3.00;99.90;;;;;;4405239;32;20070;-74
2023/03/08 09:02:47;;;;;;;0.40;0.40;;;3.20;99.90;;;;;;4402627;32;20094;-74
2023/03/08 09:05:13;;;;;;;0.50;0.50;;;3.20;99.90;;;;;;4402377;32;20402;-73
2023/03/08 09:07:38;;;;;;;0.45;0.45;;;3.20;99.90;;;;;;4402641;32;21242;-73
2023/03/08 09:10:04;;;;;;;0.73;0.73;;;3.40;99.90;;;;;;4402173;32;20069;-74
2023/03/08 09:12:30;;;;;;;0.40;0.40;;;3.50;99.90;;;;;;4403092;32;20494;-75
2023/03/08 09:14:55;;;;;;;0.30;0.30;;;3.60;99.90;;;;;;4402706;32;20062;-74
2023/03/08 09:17:21;;;;;;;0.30;0.30;;;3.60;99.90;;;;;;4404435;32;20078;-74
2023/03/08 09:19:46;;;;;;;0.47;0.47;;;3.70;99.90;;;;;;4405913;32;20141;-74
2023/03/08 09:22:12;;;;;;;0.50;0.50;;;3.80;99.90;;;;;;4406857;32;20065;-74
2023/03/08 09:24:37;;;;;;;0.50;0.50;;;3.50;99.90;;;;;;4404554;32;20427;-74
2023/03/08 09:27:05;;;;;;;0.35;0.35;;;3.60;99.90;;;;;;4407441;32;20629;-74
2023/03/08 09:29:31;;;;;;;0.45;0.45;;;3.90;99.90;;;;;;4406109;32;20145;-74
2023/03/08 09:31:57;;;;;;;0.43;0.43;;;3.80;99.90;;;;;;4406675;32;20105;-74
2023/03/08 09:34:22;;;;;;;1.08;0.60;;;3.90;99.90;;;;;;4404839;32;20070;-74
2023/03/08 09:36:48;;;;;;;0.40;0.40;;;4.00;99.90;;;;;;4405979;32;20128;-74
2023/03/08 09:39:13;;;;;;;0.40;0.40;;;3.80;99.90;;;;;;4406410;32;20086;-74
2023/03/08 09:41:43;;;;;;;0.30;0.30;;;3.80;99.90;;;;;;4405669;32;20086;-74
2023/03/08 09:44:30;;;;;;;0.50;0.50;;;3.80;99.90;;;;;;4403964;32;20082;-74
2023/03/08 09:47:03;;;;;;;0.40;0.40;;;3.60;99.90;;;;;;4406071;32;20114;-74
2023/03/08 09:49:32;;;;;;;0.40;0.40;;;3.60;99.90;;;;;;4405712;32;20101;-74
2023/03/08 09:52:21;;;;;;;0.40;0.40;;;3.60;99.90;;;;;;4406552;32;20077;-75
2023/03/08 09:54:48;;;;;;;0.43;0.43;;;3.90;99.90;;;;;;4391249;32;20094;-74
2023/03/08 09:57:22;;;;;;;0.45;0.45;;;4.20;99.90;;;;;;4406511;32;20141;-74
2023/03/08 09:59:55;;;;;;;0.40;0.40;;;4.30;99.90;;;;;;4405509;32;20140;-74
2023/03/08 10:02:45;;;;;;;0.50;0.50;;;4.60;99.90;;;;;;4400223;32;20434;-75
2023/03/08 10:05:50;;;;;;;0.57;0.57;;;4.60;99.90;;;;;;4394915;32;20120;-74
2023/03/08 10:08:24;;;;;;;0.45;0.45;;;4.70;99.90;;;;;;4393353;32;20659;-74
2023/03/08 10:10:59;;;;;;;0.40;0.40;;;4.70;99.90;;;;;;4408101;32;20109;-74
2023/03/08 10:13:47;;;;;;;0.40;0.40;;;4.70;99.90;;;;;;4399896;32;20086;-74
2023/03/08 10:16:22;;;;;;;2.90;0.57;;;4.90;99.90;;;;;;4394487;32;20090;-74
2023/03/08 10:18:55;;;;;;;10.77;1.00;;;5.10;99.90;;;;;;4407181;32;20061;-74
2023/03/08 10:21:22;;;;;;;0.47;0.47;;;5.20;99.90;;;;;;4408458;32;20074;-74
2023/03/08 10:24:06;;;;;;;0.50;0.50;;;5.10;99.90;;;;;;4404184;32;20102;-73
2023/03/08 10:26:32;;;;;;;0.50;0.50;;;5.20;99.90;;;;;;4392015;32;20154;-74
2023/03/08 10:28:58;;;;;;;0.70;0.70;;;5.00;99.90;;;;;;4404499;32;20081;-75
2023/03/08 10:31:27;;;;;;;0.40;0.40;;;4.90;99.90;;;;;;4405035;32;20541;-74
2023/03/08 10:34:10;;;;;;;0.30;0.30;;;4.90;99.90;;;;;;4405650;32;20444;-74
2023/03/08 10:36:48;;;;;;;0.40;0.40;;;5.10;99.90;;;;;;4405494;32;20089;-74
2023/03/08 10:39:16;;;;;;;0.40;0.40;;;5.30;99.90;;;;;;4402847;32;20066;-74
2023/03/08 10:41:46;;;;;;;0.50;0.50;;;5.20;99.90;;;;;;4398004;32;20156;-74
2023/03/08 10:44:26;;;;;;;0.40;0.40;;;5.10;99.90;;;;;;4403614;32;20061;-74
2023/03/08 10:46:51;;;;;;;0.40;0.40;;;5.10;99.90;;;;;;4403689;32;20093;-74
2023/03/08 10:49:18;;;;;;;0.43;0.43;;;5.00;99.90;;;;;;4402909;32;20081;-74
2023/03/08 10:52:00;;;;;;;0.43;0.43;;;5.10;99.90;;;;;;4404448;32;21105;-74
2023/03/08 10:54:27;;;;;;;0.50;0.50;;;5.20;99.90;;;;;;4399232;32;20077;-74
2023/03/08 10:56:58;;;;;;;0.50;0.50;;;5.10;99.90;;;;;;4398698;32;20058;-74
2023/03/08 10:59:31;;;;;;;0.40;0.40;;;5.10;99.90;;;;;;4398055;32;20110;-74
2023/03/08 11:02:00;;;;;;;0.60;0.60;;;5.10;99.90;;;;;;4404381;32;20069;-74
2023/03/08 11:04:28;;;;;;;0.40;0.40;;;4.90;99.90;;;;;;4405383;32;20066;-73
2023/03/08 11:06:54;;;;;;;0.55;0.55;;;4.90;99.90;;;;;;4405313;32;20094;-73
2023/03/08 11:09:29;;;;;;;0.60;0.60;;;4.80;99.90;;;;;;4403997;32;20078;-73
2023/03/08 11:11:58;;;;;;;0.40;0.40;;;4.80;99.90;;;;;;4404380;32;20156;-74
2023/03/08 11:14:25;;;;;;;0.55;0.55;;;4.90;99.90;;;;;;4402727;32;20475;-74
2023/03/08 11:17:14;;;;;;;0.40;0.40;;;4.80;99.90;;;;;;4405364;32;20091;-74
2023/03/08 11:20:09;;;;;;;2.40;1.33;;;4.80;99.90;;;;;;4394798;32;20568;-73
2023/03/08 11:22:46;;;;;;;1.58;0.90;;;4.70;99.90;;;;;;4393461;32;20533;-74
2023/03/08 11:25:18;;;;;;;0.35;0.35;;;4.90;99.90;;;;;;4406126;32;20082;-74
2023/03/08 11:27:57;;;;;;;0.40;0.40;;;5.00;99.90;;;;;;4406164;32;20678;-75
2023/03/08 11:30:38;;;;;;;0.62;0.62;;;5.00;99.90;;;;;;4403693;32;20172;-74
2023/03/08 11:33:14;;;;;;;;;;;5.00;99.90;;;;;;4405261;32;20094;-74
2023/03/08 11:36:05;;;;;;;0.37;0.37;;;4.80;99.90;;;;;;4389804;32;20032;-73
2023/03/08 11:38:31;;;;;;;;;;;4.90;99.90;;;;;;4386321;32;20077;-74
2023/03/08 11:41:19;;;;;;;0.30;0.30;;;5.00;99.90;;;;;;4404007;32;19983;-74
2023/03/08 11:44:19;;;;;;;0.40;0.40;;;5.10;99.90;;;;;;4401784;32;92932;-74
2023/03/08 11:47:13;;;;;;;0.30;0.30;;;5.10;99.90;;;;;;4393599;32;20552;-75
2023/03/08 11:50:05;;;;;;;0.40;0.40;;;5.10;99.90;;;;;;4384548;32;20078;-75
2023/03/08 11:52:56;;;;;;;0.40;0.40;;;5.10;99.90;;;;;;4397980;32;20442;-75
2023/03/08 11:55:34;;;;;;;1.00;0.77;;;5.10;99.90;;;;;;4390894;32;20182;-75
2023/03/08 11:58:13;;;;;;;0.68;0.68;;;4.90;99.90;;;;;;4404378;32;20161;-74
2023/03/08 12:00:41;;;;;;;0.40;0.40;;;4.90;99.90;;;;;;4404621;32;20533;-75
2023/03/08 12:03:18;;;;;;;0.68;0.60;;;4.90;99.90;;;;;;4402814;32;20070;-75
2023/03/08 12:05:51;;;;;;;0.30;0.30;;;5.00;99.90;;;;;;4403790;32;20556;-75
2023/03/08 12:08:47;;;;;;;0.50;0.50;;;5.10;99.90;;;;;;4403944;32;20069;-75
2023/03/08 12:11:22;;;;;;;4.87;1.00;;;5.00;99.90;;;;;;4392963;32;20120;-75
2023/03/08 12:13:53;;;;;;;0.30;0.30;;;5.00;99.90;;;;;;4403667;32;20086;-75
2023/03/08 12:16:38;;;;;;;0.35;0.35;;;5.20;99.90;;;;;;4399235;32;20081;-75
2023/03/08 12:19:25;;;;;;;0.60;0.60;;;5.20;99.90;;;;;;4407059;32;20093;-73
2023/03/08 12:22:11;;;;;;;0.40;0.40;;;5.30;99.90;;;;;;4399947;32;20078;-74
2023/03/08 12:24:47;;;;;;;0.47;0.47;;;5.30;99.90;;;;;;4403608;32;20140;-73
2023/03/08 12:27:20;;;;;;;2.72;1.02;;;5.30;99.90;;;;;;4404854;32;20549;-75
2023/03/08 12:29:58;;;;;;;0.62;0.62;;;5.00;99.90;;;;;;4406744;32;20069;-74
2023/03/08 12:32:25;;;;;;;0.75;0.60;;;4.70;99.90;;;;;;4403845;32;20201;-74
2023/03/08 12:35:30;;;;;;;0.40;0.40;;;4.70;99.90;;;;;;4403251;32;20438;-74
2023/03/08 12:37:58;;;;;;;0.40;0.40;;;4.70;99.90;;;;;;4382553;32;20140;-74
2023/03/08 12:40:29;;;;;;;0.65;0.65;;;4.80;99.90;;;;;;4405347;32;20545;-74
2023/03/08 12:43:03;;;;;;;;;;;4.90;99.90;;;;;;4405161;32;20074;-74
2023/03/08 12:45:29;;;;;;;0.70;0.70;;;5.00;99.90;;;;;;4403416;32;19941;-75
2023/03/08 12:48:07;;;;;;;0.50;0.50;;;5.10;99.90;;;;;;4403198;32;20054;-74
2023/03/08 12:50:52;;;;;;;0.50;0.50;;;4.90;99.90;;;;;;4389911;32;20532;-75
2023/03/08 12:53:24;;;;;;;0.30;0.30;;;5.10;99.90;;;;;;4407464;32;20526;-75
2023/03/08 12:56:10;;;;;;;0.35;0.35;;;5.10;99.90;;;;;;4407838;32;20144;-75
2023/03/08 12:58:46;;;;;;;0.30;0.30;;;5.00;99.90;;;;;;4390157;32;20090;-74
2023/03/08 13:01:33;;;;;;;0.40;0.40;;;4.80;99.90;;;;;;4407570;32;20061;-75
2023/03/08 13:04:02;;;;;;;0.40;0.40;;;4.90;99.90;;;;;;4397498;32;20058;-75
2023/03/08 13:06:52;;;;;;;0.40;0.40;;;4.90;99.90;;;;;;4406492;32;20090;-74